1898 Hurricane NOT_NAMED (1898300N16280)


IBTrACS version v04r00. Visit IBTrACS website for data access.
Please direct all questions to the IBTrACS Q and A forum

Storm track - Intensity - Wind Radii - Intensity Data - Source Data - All data

Summary Information

Storm ID 1898300N16280
Start Oct 27 06Z
Landfall Nov 3 00Z
Max Intensity 85 kt (Oct 31 12Z)
End Nov 3 06Z
ATCF IDs
Track status Best track data.

Storm track plot

Map of storm track

Intensity plots

Map of storm track

Radial wind information

No radial wind information for this storm


Position and Intensity Table

BASIN ISO_TIME_________ NATURE LAT LON MLC WIND
degrees north degrees east kts
NA 1898-10-27 06:00:00 TS 15.60 -80.00 30
NA 09:00:00 TS 15.82 -80.16 30
NA 12:00:00 TS 16.00 -80.30 30
NA 15:00:00 TS 16.11 -80.41 30
NA 18:00:00 TS 16.20 -80.50 30
NA 21:00:00 TS 16.30 -80.61 30
NA 1898-10-28 00:00:00 TS 16.40 -80.70 30
NA 03:00:00 TS 16.49 -80.75 30
NA 06:00:00 TS 16.60 -80.80 30
NA 09:00:00 TS 16.74 -80.89 32
NA 12:00:00 TS 16.90 -81.00 35
NA 15:00:00 TS 17.05 -81.10 35
NA 18:00:00 TS 17.20 -81.20 35
NA 21:00:00 TS 17.36 -81.30 35
NA 1898-10-29 00:00:00 TS 17.50 -81.40 35
NA 03:00:00 TS 17.56 -81.50 37
NA 06:00:00 TS 17.60 -81.60 40
NA 09:00:00 TS 17.68 -81.70 42
NA 12:00:00 TS 17.80 -81.80 45
NA 15:00:00 TS 17.94 -81.91 47
NA 18:00:00 TS 18.10 -82.00 50
NA 21:00:00 TS 18.25 -82.05 52
NA 1898-10-30 00:00:00 TS 18.40 -82.10 55
NA 03:00:00 TS 18.55 -82.19 57
NA 06:00:00 TS 18.70 -82.30 60
NA 09:00:00 TS 18.86 -82.39 62
NA 12:00:00 TS 19.00 -82.50 65
NA 15:00:00 TS 19.11 -82.64 65
NA 18:00:00 TS 19.20 -82.80 65
NA 21:00:00 TS 19.26 -82.99 70
NA 1898-10-31 00:00:00 TS 19.30 -83.20 75
NA 03:00:00 TS 19.32 -83.40 75
NA 06:00:00 TS 19.30 -83.60 75
NA 09:00:00 TS 19.21 -83.80 80
NA 12:00:00 TS 19.10 -84.00 85
NA 15:00:00 TS 19.00 -84.21 85
NA 18:00:00 TS 18.90 -84.40 85
NA 21:00:00 TS 18.80 -84.55 85
NA 1898-11-01 00:00:00 TS 18.70 -84.70 85
NA 03:00:00 TS 18.60 -84.89 85
NA 06:00:00 TS 18.50 -85.10 85
NA 09:00:00 TS 18.42 -85.30 85
NA 12:00:00 TS 18.30 -85.50 85
NA 15:00:00 TS 18.07 -85.71 85
NA 18:00:00 TS 17.80 -85.90 85
NA 21:00:00 TS 17.59 -86.06 85
NA 1898-11-02 00:00:00 TS 17.40 -86.20 85
NA 03:00:00 TS 17.21 -86.31 85
NA 06:00:00 TS 17.00 -86.40 85
NA 09:00:00 TS 16.75 -86.46 85
NA 12:00:00 TS 16.50 -86.50 85
NA 15:00:00 TS 16.29 -86.55 82
NA 18:00:00 TS 16.10 -86.60 80
NA 21:00:00 TS 15.87 -86.65 67
NA 1898-11-03 00:00:00 TS 15.70 -86.70 55
NA 03:00:00 TS 15.66 -86.75 55
NA 06:00:00 TS 15.70 -86.80 55

Source Information

Agency Information
USA
TOKYO
CMA
HKO
NEWDELHI
REUNION
BOM
NADI
WELLINGTON
DS824
TD9636
TD9635
NEUMANN
MLC

All available IBTrACS Data

SEASON BASIN SUBBASIN ISO_TIME_________ NATURE LAT LON DIST2LAND LANDFALL IFLAG USA SSHS MLC LAT MLC LON MLC CLASS MLC WIND STORM SPEED STORM DIR
Year degrees north degrees east km km 1 degrees north degrees east kts kts degrees
1898 NA CS 1898-10-27 06:00:00 TS 15.60 -80.00 337 323 _____________O -1 15.60 -80.00 TD 30 5 325
1898 NA CS 09:00:00 TS 15.82 -80.16 323 316 _____________P -1 15.82 -80.16 TD 30 5 324
1898 NA CS 12:00:00 TS 16.00 -80.30 318 309 _____________O -1 16.00 -80.30 TD 30 4 321
1898 NA CS 15:00:00 TS 16.11 -80.41 314 308 _____________P -1 16.11 -80.41 TD 30 3 316
1898 NA CS 18:00:00 TS 16.20 -80.50 309 299 _____________O -1 16.20 -80.50 TD 30 3 314
1898 NA CS 21:00:00 TS 16.30 -80.61 304 295 _____________P -1 16.30 -80.61 TD 30 3 316
1898 NA CS 1898-10-28 00:00:00 TS 16.40 -80.70 301 301 _____________O -1 16.40 -80.70 TD 30 2 324
1898 NA CS 03:00:00 TS 16.49 -80.75 298 298 _____________P -1 16.49 -80.75 TD 30 2 333
1898 NA CS 06:00:00 TS 16.60 -80.80 304 302 _____________O -1 16.60 -80.80 TD 30 3 331
1898 NA CS 09:00:00 TS 16.74 -80.89 302 301 _____________P -1 16.74 -80.89 TD 32 4 328
1898 NA CS 12:00:00 TS 16.90 -81.00 309 306 _____________O -1 16.90 -81.00 TS 35 4 327
1898 NA CS 15:00:00 TS 17.05 -81.10 311 309 _____________P -1 17.05 -81.10 TS 35 4 328
1898 NA CS 18:00:00 TS 17.20 -81.20 316 313 _____________O -1 17.20 -81.20 TS 35 4 329
1898 NA CS 21:00:00 TS 17.36 -81.30 319 317 _____________P -1 17.36 -81.30 TS 35 4 328
1898 NA CS 1898-10-29 00:00:00 TS 17.50 -81.40 325 318 _____________O -1 17.50 -81.40 TS 35 3 315
1898 NA CS 03:00:00 TS 17.56 -81.50 327 321 _____________P -1 17.56 -81.50 TS 37 2 298
1898 NA CS 06:00:00 TS 17.60 -81.60 321 314 _____________O -1 17.60 -81.60 TS 40 2 304
1898 NA CS 09:00:00 TS 17.68 -81.70 324 318 _____________P -1 17.68 -81.70 TS 42 3 316
1898 NA CS 12:00:00 TS 17.80 -81.80 327 327 _____________O -1 17.80 -81.80 TS 45 3 323
1898 NA CS 15:00:00 TS 17.94 -81.91 332 332 _____________P -1 17.94 -81.91 TS 47 4 328
1898 NA CS 18:00:00 TS 18.10 -82.00 347 347 _____________O -1 18.10 -82.00 TS 50 3 336
1898 NA CS 21:00:00 TS 18.25 -82.05 352 343 _____________P -1 18.25 -82.05 TS 52 3 343
1898 NA CS 1898-10-30 00:00:00 TS 18.40 -82.10 343 330 _____________O -1 18.40 -82.10 TS 55 3 335
1898 NA CS 03:00:00 TS 18.55 -82.19 319 306 _____________P -1 18.55 -82.19 TS 57 4 328
1898 NA CS 06:00:00 TS 18.70 -82.30 306 293 _____________O -1 18.70 -82.30 TS 60 4 329
1898 NA CS 09:00:00 TS 18.86 -82.39 282 270 _____________P -1 18.86 -82.39 TS 62 4 328
1898 NA CS 12:00:00 TS 19.00 -82.50 270 258 _____________O -1 19.00 -82.50 HU 65 3 318
1898 NA CS 15:00:00 TS 19.11 -82.64 258 246 _____________P -1 19.11 -82.64 HU 65 3 305
1898 NA CS 18:00:00 TS 19.20 -82.80 246 235 _____________O -1 19.20 -82.80 HU 65 4 294
1898 NA CS 21:00:00 TS 19.26 -82.99 235 235 _____________P -1 19.26 -82.99 HU 70 4 285
1898 NA CS 1898-10-31 00:00:00 TS 19.30 -83.20 238 238 _____________O -1 19.30 -83.20 HU 75 4 279
1898 NA CS 03:00:00 TS 19.32 -83.40 243 243 _____________P -1 19.32 -83.40 HU 75 4 270
1898 NA CS 06:00:00 TS 19.30 -83.60 249 249 _____________O -1 19.30 -83.60 HU 75 4 254
1898 NA CS 09:00:00 TS 19.21 -83.80 267 267 _____________P -1 19.21 -83.80 HU 80 4 242
1898 NA CS 12:00:00 TS 19.10 -84.00 286 286 _____________O -1 19.10 -84.00 HU 85 4 241
1898 NA CS 15:00:00 TS 19.00 -84.21 305 305 _____________P -1 19.00 -84.21 HU 85 4 242
1898 NA CS 18:00:00 TS 18.90 -84.40 322 311 _____________O -1 18.90 -84.40 HU 85 4 238
1898 NA CS 21:00:00 TS 18.80 -84.55 314 297 _____________P -1 18.80 -84.55 HU 85 3 235
1898 NA CS 1898-11-01 00:00:00 TS 18.70 -84.70 297 281 _____________O -1 18.70 -84.70 HU 85 4 238
1898 NA CS 03:00:00 TS 18.60 -84.89 281 264 _____________P -1 18.60 -84.89 HU 85 4 242
1898 NA CS 06:00:00 TS 18.50 -85.10 264 248 _____________O -1 18.50 -85.10 HU 85 4 245
1898 NA CS 09:00:00 TS 18.42 -85.30 248 231 _____________P -1 18.42 -85.30 HU 85 4 242
1898 NA CS 12:00:00 TS 18.30 -85.50 231 218 _____________O -1 18.30 -85.50 HU 85 5 227
1898 NA CS 15:00:00 TS 18.07 -85.71 218 203 _____________P -1 18.07 -85.71 HU 85 6 217
1898 NA CS 18:00:00 TS 17.80 -85.90 205 190 _____________O -1 17.80 -85.90 HU 85 6 216
1898 NA CS 21:00:00 TS 17.59 -86.06 191 170 _____________P -1 17.59 -86.06 HU 85 5 215
1898 NA CS 1898-11-02 00:00:00 TS 17.40 -86.20 170 151 _____________O -1 17.40 -86.20 HU 85 5 212
1898 NA CS 03:00:00 TS 17.21 -86.31 151 134 _____________P -1 17.21 -86.31 HU 85 4 205
1898 NA CS 06:00:00 TS 17.00 -86.40 134 111 _____________O -1 17.00 -86.40 HU 85 5 197
1898 NA CS 09:00:00 TS 16.75 -86.46 101 79 _____________P -1 16.75 -86.46 HU 85 5 191
1898 NA CS 12:00:00 TS 16.50 -86.50 79 56 _____________O -1 16.50 -86.50 HU 85 5 191
1898 NA CS 15:00:00 TS 16.29 -86.55 56 39 _____________P -1 16.29 -86.55 HU 82 4 193
1898 NA CS 18:00:00 TS 16.10 -86.60 39 22 _____________O -1 16.10 -86.60 HU 80 4 193
1898 NA CS 21:00:00 TS 15.87 -86.65 22 0 _____________P -1 15.87 -86.65 HU 67 4 193
1898 NA NA 1898-11-03 00:00:00 TS 15.70 -86.70 0 0 _____________O -1 15.70 -86.70 TS 55 2 204
1898 NA NA 03:00:00 TS 15.66 -86.75 0 0 _____________P -1 15.66 -86.75 TS 55 1 270
1898 NA NA 06:00:00 TS 15.70 -86.80 0 _____________O -1 15.70 -86.80 TS 55 1 316